sensor_id;sensor_type;location;lat;lon;timestamp;temperature;humidity
10873;DHT22;34586;53.616;10.032;2022-09-20T00:01:48;8.90;99.90
10873;DHT22;34586;53.616;10.032;2022-09-20T00:04:14;8.80;99.90
10873;DHT22;34586;53.616;10.032;2022-09-20T00:06:40;8.80;99.90
10873;DHT22;34586;53.616;10.032;2022-09-20T00:09:05;8.80;99.90
10873;DHT22;34586;53.616;10.032;2022-09-20T00:11:32;8.80;99.90
10873;DHT22;34586;53.616;10.032;2022-09-20T00:14:00;8.80;99.90
10873;DHT22;34586;53.616;10.032;2022-09-20T00:16:29;8.70;99.90
10873;DHT22;34586;53.616;10.032;2022-09-20T00:18:57;8.70;99.90
10873;DHT22;34586;53.616;10.032;2022-09-20T00:21:25;8.70;99.90
10873;DHT22;34586;53.616;10.032;2022-09-20T00:23:52;8.70;99.90
10873;DHT22;34586;53.616;10.032;2022-09-20T00:26:18;8.70;99.90
10873;DHT22;34586;53.616;10.032;2022-09-20T00:28:44;8.70;99.90
10873;DHT22;34586;53.616;10.032;2022-09-20T00:31:11;8.80;99.90
10873;DHT22;34586;53.616;10.032;2022-09-20T00:33:37;8.70;99.90
10873;DHT22;34586;53.616;10.032;2022-09-20T00:36:21;8.80;99.90
10873;DHT22;34586;53.616;10.032;2022-09-20T00:38:47;8.80;99.90
10873;DHT22;34586;53.616;10.032;2022-09-20T00:41:13;8.80;99.90
10873;DHT22;34586;53.616;10.032;2022-09-20T00:43:41;8.80;99.90
10873;DHT22;34586;53.616;10.032;2022-09-20T00:48:43;8.80;99.90
10873;DHT22;34586;53.616;10.032;2022-09-20T00:51:16;8.80;99.90
10873;DHT22;34586;53.616;10.032;2022-09-20T00:53:45;8.00;99.90
10873;DHT22;34586;53.616;10.032;2022-09-20T00:56:16;8.80;99.90
10873;DHT22;34586;53.616;10.032;2022-09-20T00:58:48;8.70;99.90
10873;DHT22;34586;53.616;10.032;2022-09-20T01:01:15;8.70;99.90
10873;DHT22;34586;53.616;10.032;2022-09-20T01:03:43;8.70;99.90
10873;DHT22;34586;53.616;10.032;2022-09-20T01:06:12;8.70;99.90
10873;DHT22;34586;53.616;10.032;2022-09-20T01:08:41;8.70;99.90
10873;DHT22;34586;53.616;10.032;2022-09-20T01:11:09;8.70;99.90
10873;DHT22;34586;53.616;10.032;2022-09-20T01:13:34;8.60;99.90
10873;DHT22;34586;53.616;10.032;2022-09-20T01:16:01;8.60;99.90
10873;DHT22;34586;53.616;10.032;2022-09-20T01:18:29;8.60;99.90
10873;DHT22;34586;53.616;10.032;2022-09-20T01:20:57;8.60;99.90
10873;DHT22;34586;53.616;10.032;2022-09-20T01:28:48;8.60;99.90
10873;DHT22;34586;53.616;10.032;2022-09-20T01:31:24;8.60;99.90
10873;DHT22;34586;53.616;10.032;2022-09-20T01:33:59;8.60;99.90
10873;DHT22;34586;53.616;10.032;2022-09-20T01:44:37;8.40;99.90
10873;DHT22;34586;53.616;10.032;2022-09-20T01:47:15;8.40;99.90
10873;DHT22;34586;53.616;10.032;2022-09-20T01:49:52;8.40;99.90
10873;DHT22;34586;53.616;10.032;2022-09-20T01:58:34;8.30;99.90
10873;DHT22;34586;53.616;10.032;2022-09-20T02:20:12;8.20;99.90
10873;DHT22;34586;53.616;10.032;2022-09-20T02:25:57;8.20;99.90
10873;DHT22;34586;53.616;10.032;2022-09-20T02:28:46;8.20;99.90
10873;DHT22;34586;53.616;10.032;2022-09-20T02:39:15;8.30;99.90
10873;DHT22;34586;53.616;10.032;2022-09-20T02:58:26;8.20;99.90
10873;DHT22;34586;53.616;10.032;2022-09-20T03:09:41;8.20;99.90
10873;DHT22;34586;53.616;10.032;2022-09-20T03:12:18;8.20;99.90
10873;DHT22;34586;53.616;10.032;2022-09-20T03:15:37;8.20;99.90
10873;DHT22;34586;53.616;10.032;2022-09-20T03:18:05;8.20;99.90
10873;DHT22;34586;53.616;10.032;2022-09-20T03:23:36;8.20;99.90
10873;DHT22;34586;53.616;10.032;2022-09-20T03:29:03;8.10;99.90
10873;DHT22;34586;53.616;10.032;2022-09-20T03:32:04;8.10;99.90
10873;DHT22;34586;53.616;10.032;2022-09-20T03:35:06;8.10;99.90
10873;DHT22;34586;53.616;10.032;2022-09-20T03:38:01;8.10;99.90
10873;DHT22;34586;53.616;10.032;2022-09-20T03:46:17;8.00;99.90
10873;DHT22;34586;53.616;10.032;2022-09-20T04:00:00;7.90;99.90
10873;DHT22;34586;53.616;10.032;2022-09-20T04:02:49;7.90;99.90
10873;DHT22;34586;53.616;10.032;2022-09-20T04:11:45;7.90;99.90
10873;DHT22;34586;53.616;10.032;2022-09-20T04:13:54;7.90;99.90
10873;DHT22;34586;53.616;10.032;2022-09-20T04:16:41;7.90;99.90
10873;DHT22;34586;53.616;10.032;2022-09-20T04:19:15;7.90;99.90
10873;DHT22;34586;53.616;10.032;2022-09-20T04:21:52;7.80;99.90
10873;DHT22;34586;53.616;10.032;2022-09-20T04:29:43;7.80;99.90
10873;DHT22;34586;53.616;10.032;2022-09-20T04:32:38;7.80;99.90
10873;DHT22;34586;53.616;10.032;2022-09-20T04:38:19;7.80;99.90
10873;DHT22;34586;53.616;10.032;2022-09-20T04:55:48;7.70;99.90
10873;DHT22;34586;53.616;10.032;2022-09-20T05:07:46;7.60;99.90
10873;DHT22;34586;53.616;10.032;2022-09-20T05:13:07;7.60;99.90
10873;DHT22;34586;53.616;10.032;2022-09-20T05:15:43;7.60;99.90
10873;DHT22;34586;53.616;10.032;2022-09-20T05:18:32;7.60;99.90
10873;DHT22;34586;53.616;10.032;2022-09-20T05:27:12;7.60;99.90
10873;DHT22;34586;53.616;10.032;2022-09-20T05:29:56;7.60;99.90
10873;DHT22;34586;53.616;10.032;2022-09-20T05:32:51;7.70;99.90
10873;DHT22;34586;53.616;10.032;2022-09-20T05:35:36;7.70;99.90
10873;DHT22;34586;53.616;10.032;2022-09-20T05:43:34;7.80;99.90
10873;DHT22;34586;53.616;10.032;2022-09-20T05:46:34;7.80;99.90
10873;DHT22;34586;53.616;10.032;2022-09-20T05:49:14;7.90;99.90
10873;DHT22;34586;53.616;10.032;2022-09-20T05:57:23;8.00;99.90
10873;DHT22;34586;53.616;10.032;2022-09-20T06:00:04;8.00;99.90
10873;DHT22;34586;53.616;10.032;2022-09-20T06:16:53;8.40;99.90
10873;DHT22;34586;53.616;10.032;2022-09-20T06:19:43;8.40;99.90
10873;DHT22;34586;53.616;10.032;2022-09-20T06:22:35;8.50;99.90
10873;DHT22;34586;53.616;10.032;2022-09-20T06:25:15;8.60;99.90
10873;DHT22;34586;53.616;10.032;2022-09-20T06:28:15;8.70;99.90
10873;DHT22;34586;53.616;10.032;2022-09-20T06:30:49;8.70;99.90
10873;DHT22;34586;53.616;10.032;2022-09-20T06:33:39;8.90;99.90
10873;DHT22;34586;53.616;10.032;2022-09-20T06:36:31;8.90;99.90
10873;DHT22;34586;53.616;10.032;2022-09-20T06:39:28;9.00;99.90
10873;DHT22;34586;53.616;10.032;2022-09-20T06:42:16;9.10;99.90
10873;DHT22;34586;53.616;10.032;2022-09-20T06:44:41;9.20;99.90
10873;DHT22;34586;53.616;10.032;2022-09-20T06:47:11;9.30;99.90
10873;DHT22;34586;53.616;10.032;2022-09-20T06:49:37;9.40;99.90
10873;DHT22;34586;53.616;10.032;2022-09-20T06:52:11;9.40;99.90
10873;DHT22;34586;53.616;10.032;2022-09-20T06:54:38;9.50;99.90
10873;DHT22;34586;53.616;10.032;2022-09-20T06:57:05;9.60;99.90
10873;DHT22;34586;53.616;10.032;2022-09-20T06:59:31;9.70;99.90
10873;DHT22;34586;53.616;10.032;2022-09-20T07:01:57;9.80;99.90
10873;DHT22;34586;53.616;10.032;2022-09-20T07:04:23;9.80;99.90
10873;DHT22;34586;53.616;10.032;2022-09-20T07:06:49;9.90;99.90
10873;DHT22;34586;53.616;10.032;2022-09-20T07:09:15;9.90;99.90
10873;DHT22;34586;53.616;10.032;2022-09-20T07:11:42;10.00;99.90
10873;DHT22;34586;53.616;10.032;2022-09-20T07:14:09;10.10;99.90
10873;DHT22;34586;53.616;10.032;2022-09-20T07:16:35;10.20;99.90
10873;DHT22;34586;53.616;10.032;2022-09-20T07:19:02;10.20;99.90
10873;DHT22;34586;53.616;10.032;2022-09-20T07:21:27;10.30;99.90
10873;DHT22;34586;53.616;10.032;2022-09-20T07:23:53;10.40;99.90
10873;DHT22;34586;53.616;10.032;2022-09-20T07:26:26;10.50;99.90
10873;DHT22;34586;53.616;10.032;2022-09-20T07:28:53;10.50;99.90
10873;DHT22;34586;53.616;10.032;2022-09-20T07:31:21;10.60;99.90
10873;DHT22;34586;53.616;10.032;2022-09-20T07:33:47;10.70;99.90
10873;DHT22;34586;53.616;10.032;2022-09-20T07:36:14;10.80;99.90
10873;DHT22;34586;53.616;10.032;2022-09-20T07:38:40;10.90;99.90
10873;DHT22;34586;53.616;10.032;2022-09-20T07:41:08;10.90;99.90
10873;DHT22;34586;53.616;10.032;2022-09-20T07:43:34;11.00;99.90
10873;DHT22;34586;53.616;10.032;2022-09-20T07:46:00;11.10;99.90
10873;DHT22;34586;53.616;10.032;2022-09-20T07:48:32;11.10;99.90
10873;DHT22;34586;53.616;10.032;2022-09-20T07:51:20;11.20;99.90
10873;DHT22;34586;53.616;10.032;2022-09-20T07:53:45;11.20;99.90
10873;DHT22;34586;53.616;10.032;2022-09-20T07:56:13;11.30;99.90
10873;DHT22;34586;53.616;10.032;2022-09-20T07:58:40;11.40;99.90
10873;DHT22;34586;53.616;10.032;2022-09-20T08:01:09;11.40;99.90
10873;DHT22;34586;53.616;10.032;2022-09-20T08:03:35;11.50;99.90
10873;DHT22;34586;53.616;10.032;2022-09-20T08:06:06;11.50;99.90
10873;DHT22;34586;53.616;10.032;2022-09-20T08:08:37;11.60;99.90
10873;DHT22;34586;53.616;10.032;2022-09-20T08:11:11;11.60;99.90
10873;DHT22;34586;53.616;10.032;2022-09-20T08:13:42;11.70;99.90
10873;DHT22;34586;53.616;10.032;2022-09-20T08:16:09;11.70;99.90
10873;DHT22;34586;53.616;10.032;2022-09-20T08:18:35;11.80;99.90
10873;DHT22;34586;53.616;10.032;2022-09-20T08:21:06;11.80;99.90
10873;DHT22;34586;53.616;10.032;2022-09-20T08:23:36;11.90;99.90
10873;DHT22;34586;53.616;10.032;2022-09-20T08:26:04;11.90;99.90
10873;DHT22;34586;53.616;10.032;2022-09-20T08:28:30;11.90;99.90
10873;DHT22;34586;53.616;10.032;2022-09-20T08:31:07;12.00;99.90
10873;DHT22;34586;53.616;10.032;2022-09-20T08:33:34;12.10;99.90
10873;DHT22;34586;53.616;10.032;2022-09-20T08:36:04;12.10;99.90
10873;DHT22;34586;53.616;10.032;2022-09-20T08:38:31;12.10;99.90
10873;DHT22;34586;53.616;10.032;2022-09-20T08:41:00;12.10;99.90
10873;DHT22;34586;53.616;10.032;2022-09-20T08:43:29;12.20;99.90
10873;DHT22;34586;53.616;10.032;2022-09-20T08:45:58;12.20;99.90
10873;DHT22;34586;53.616;10.032;2022-09-20T08:48:28;12.20;99.90
10873;DHT22;34586;53.616;10.032;2022-09-20T08:51:02;12.30;99.90
10873;DHT22;34586;53.616;10.032;2022-09-20T08:53:29;12.30;99.90
10873;DHT22;34586;53.616;10.032;2022-09-20T08:55:55;12.40;99.90
10873;DHT22;34586;53.616;10.032;2022-09-20T08:58:25;12.50;99.90
10873;DHT22;34586;53.616;10.032;2022-09-20T09:00:52;12.50;79.20
10873;DHT22;34586;53.616;10.032;2022-09-20T09:03:18;12.50;67.10
10873;DHT22;34586;53.616;10.032;2022-09-20T09:05:46;12.60;41.20
10873;DHT22;34586;53.616;10.032;2022-09-20T09:08:14;12.60;1.00
10873;DHT22;34586;53.616;10.032;2022-09-20T09:10:56;12.70;38.90
10873;DHT22;34586;53.616;10.032;2022-09-20T09:13:30;12.80;28.60
10873;DHT22;34586;53.616;10.032;2022-09-20T09:16:00;12.80;1.00
10873;DHT22;34586;53.616;10.032;2022-09-20T09:18:32;13.00;1.00
10873;DHT22;34586;53.616;10.032;2022-09-20T09:21:00;13.10;1.00
10873;DHT22;34586;53.616;10.032;2022-09-20T09:23:28;13.20;1.00
10873;DHT22;34586;53.616;10.032;2022-09-20T09:26:02;13.20;99.90
10873;DHT22;34586;53.616;10.032;2022-09-20T09:28:29;13.20;99.90
10873;DHT22;34586;53.616;10.032;2022-09-20T09:31:21;13.30;1.00
10873;DHT22;34586;53.616;10.032;2022-09-20T09:33:47;13.40;99.90
10873;DHT22;34586;53.616;10.032;2022-09-20T09:36:16;13.50;99.90
10873;DHT22;34586;53.616;10.032;2022-09-20T09:38:45;13.60;99.90
10873;DHT22;34586;53.616;10.032;2022-09-20T09:44:06;13.60;99.90
10873;DHT22;34586;53.616;10.032;2022-09-20T09:46:37;13.70;1.00
10873;DHT22;34586;53.616;10.032;2022-09-20T09:51:32;14.10;1.00
10873;DHT22;34586;53.616;10.032;2022-09-20T09:53:59;14.30;99.90
10873;DHT22;34586;53.616;10.032;2022-09-20T09:59:40;14.00;99.90
10873;DHT22;34586;53.616;10.032;2022-09-20T10:11:00;14.10;1.00
10873;DHT22;34586;53.616;10.032;2022-09-20T10:19:12;14.50;99.90
10873;DHT22;34586;53.616;10.032;2022-09-20T10:21:51;14.60;1.00
10873;DHT22;34586;53.616;10.032;2022-09-20T10:40:58;14.40;1.00
10873;DHT22;34586;53.616;10.032;2022-09-20T10:43:55;14.40;1.00
10873;DHT22;34586;53.616;10.032;2022-09-20T10:54:54;14.40;1.00
10873;DHT22;34586;53.616;10.032;2022-09-20T11:00:16;14.80;1.00
10873;DHT22;34586;53.616;10.032;2022-09-20T11:03:02;15.00;99.90
10873;DHT22;34586;53.616;10.032;2022-09-20T11:05:42;15.20;1.00
10873;DHT22;34586;53.616;10.032;2022-09-20T11:08:16;16.00;99.90
10873;DHT22;34586;53.616;10.032;2022-09-20T11:14:05;15.00;1.00
10873;DHT22;34586;53.616;10.032;2022-09-20T11:16:39;15.00;99.90
10873;DHT22;34586;53.616;10.032;2022-09-20T11:22:09;15.00;1.00
10873;DHT22;34586;53.616;10.032;2022-09-20T11:27:45;15.20;99.90
10873;DHT22;34586;53.616;10.032;2022-09-20T11:30:16;15.40;1.00
10873;DHT22;34586;53.616;10.032;2022-09-20T11:32:52;15.50;99.90
10873;DHT22;34586;53.616;10.032;2022-09-20T11:35:50;15.50;1.00
10873;DHT22;34586;53.616;10.032;2022-09-20T11:43:25;15.40;42.90
10873;DHT22;34586;53.616;10.032;2022-09-20T11:45:59;15.50;1.00
10873;DHT22;34586;53.616;10.032;2022-09-20T11:48:30;15.60;1.00
10873;DHT22;34586;53.616;10.032;2022-09-20T11:54:41;15.90;12.90
10873;DHT22;34586;53.616;10.032;2022-09-20T11:57:15;15.90;1.00
10873;DHT22;34586;53.616;10.032;2022-09-20T11:59:48;16.00;99.90
10873;DHT22;34586;53.616;10.032;2022-09-20T12:02:36;16.20;65.60
10873;DHT22;34586;53.616;10.032;2022-09-20T12:05:05;16.30;99.90
10873;DHT22;34586;53.616;10.032;2022-09-20T12:10:05;17.00;99.90
10873;DHT22;34586;53.616;10.032;2022-09-20T12:12:45;17.30;1.00
10873;DHT22;34586;53.616;10.032;2022-09-20T12:28:56;19.20;99.90
10873;DHT22;34586;53.616;10.032;2022-09-20T12:36:32;18.50;1.00
10873;DHT22;34586;53.616;10.032;2022-09-20T12:39:04;19.00;99.90
10873;DHT22;34586;53.616;10.032;2022-09-20T12:47:01;19.30;99.90
10873;DHT22;34586;53.616;10.032;2022-09-20T12:49:31;19.30;99.90
10873;DHT22;34586;53.616;10.032;2022-09-20T12:55:10;19.40;99.90
10873;DHT22;34586;53.616;10.032;2022-09-20T12:57:37;19.30;99.90
10873;DHT22;34586;53.616;10.032;2022-09-20T13:00:05;19.50;99.90
10873;DHT22;34586;53.616;10.032;2022-09-20T13:03:00;19.80;99.90
10873;DHT22;34586;53.616;10.032;2022-09-20T13:05:37;19.80;99.90
10873;DHT22;34586;53.616;10.032;2022-09-20T13:08:19;20.00;99.90
10873;DHT22;34586;53.616;10.032;2022-09-20T13:13:47;19.70;5.80
10873;DHT22;34586;53.616;10.032;2022-09-20T13:16:25;19.20;52.70
10873;DHT22;34586;53.616;10.032;2022-09-20T13:19:00;18.80;99.90
10873;DHT22;34586;53.616;10.032;2022-09-20T13:21:26;18.40;99.90
10873;DHT22;34586;53.616;10.032;2022-09-20T13:23:53;18.10;99.90
10873;DHT22;34586;53.616;10.032;2022-09-20T13:26:24;18.20;99.90
10873;DHT22;34586;53.616;10.032;2022-09-20T13:28:53;18.30;99.90
10873;DHT22;34586;53.616;10.032;2022-09-20T13:33:45;18.50;99.90
10873;DHT22;34586;53.616;10.032;2022-09-20T13:36:11;18.70;99.90
10873;DHT22;34586;53.616;10.032;2022-09-20T13:38:37;18.90;1.00
10873;DHT22;34586;53.616;10.032;2022-09-20T13:41:05;18.90;99.90
10873;DHT22;34586;53.616;10.032;2022-09-20T13:43:39;19.10;99.90
10873;DHT22;34586;53.616;10.032;2022-09-20T13:48:45;19.40;99.90
10873;DHT22;34586;53.616;10.032;2022-09-20T13:51:19;19.40;99.90
10873;DHT22;34586;53.616;10.032;2022-09-20T13:53:47;19.20;99.90
10873;DHT22;34586;53.616;10.032;2022-09-20T13:56:26;19.20;99.90
10873;DHT22;34586;53.616;10.032;2022-09-20T13:58:53;19.20;87.60
10873;DHT22;34586;53.616;10.032;2022-09-20T14:01:30;18.90;1.00
10873;DHT22;34586;53.616;10.032;2022-09-20T14:04:04;18.80;65.30
10873;DHT22;34586;53.616;10.032;2022-09-20T14:06:30;18.70;1.00
10873;DHT22;34586;53.616;10.032;2022-09-20T14:08:58;18.80;30.80
10873;DHT22;34586;53.616;10.032;2022-09-20T14:11:31;18.70;99.50
10873;DHT22;34586;53.616;10.032;2022-09-20T14:14:00;18.70;1.00
10873;DHT22;34586;53.616;10.032;2022-09-20T14:16:32;18.80;1.00
10873;DHT22;34586;53.616;10.032;2022-09-20T14:18:59;18.80;1.00
10873;DHT22;34586;53.616;10.032;2022-09-20T14:21:27;18.70;1.00
10873;DHT22;34586;53.616;10.032;2022-09-20T14:24:22;18.30;99.90
10873;DHT22;34586;53.616;10.032;2022-09-20T14:27:14;18.30;99.90
10873;DHT22;34586;53.616;10.032;2022-09-20T14:29:48;18.10;1.00
10873;DHT22;34586;53.616;10.032;2022-09-20T14:37:24;17.60;1.00
10873;DHT22;34586;53.616;10.032;2022-09-20T14:39:54;17.60;1.00
10873;DHT22;34586;53.616;10.032;2022-09-20T14:45:07;17.70;1.00
10873;DHT22;34586;53.616;10.032;2022-09-20T14:48:00;17.70;99.90
10873;DHT22;34586;53.616;10.032;2022-09-20T14:50:42;17.70;1.00
10873;DHT22;34586;53.616;10.032;2022-09-20T14:55:57;17.60;1.00
10873;DHT22;34586;53.616;10.032;2022-09-20T14:58:24;17.50;99.90
10873;DHT22;34586;53.616;10.032;2022-09-20T15:01:03;17.40;99.90
10873;DHT22;34586;53.616;10.032;2022-09-20T15:03:37;17.30;99.90
10873;DHT22;34586;53.616;10.032;2022-09-20T15:06:04;17.20;99.90
10873;DHT22;34586;53.616;10.032;2022-09-20T15:08:33;17.00;1.00
10873;DHT22;34586;53.616;10.032;2022-09-20T15:10:59;17.00;1.00
10873;DHT22;34586;53.616;10.032;2022-09-20T15:13:25;17.00;1.00
10873;DHT22;34586;53.616;10.032;2022-09-20T15:15:53;17.00;1.00
10873;DHT22;34586;53.616;10.032;2022-09-20T15:18:21;17.00;4.70
10873;DHT22;34586;53.616;10.032;2022-09-20T15:20:48;17.00;1.00
10873;DHT22;34586;53.616;10.032;2022-09-20T15:23:14;17.00;1.00
10873;DHT22;34586;53.616;10.032;2022-09-20T15:25:40;17.00;1.00
10873;DHT22;34586;53.616;10.032;2022-09-20T15:28:05;16.90;1.00
10873;DHT22;34586;53.616;10.032;2022-09-20T15:30:32;17.20;1.00
10873;DHT22;34586;53.616;10.032;2022-09-20T15:32:58;17.10;99.90
10873;DHT22;34586;53.616;10.032;2022-09-20T15:35:23;17.20;1.00
10873;DHT22;34586;53.616;10.032;2022-09-20T15:37:49;17.20;1.00
10873;DHT22;34586;53.616;10.032;2022-09-20T15:40:14;17.00;1.00
10873;DHT22;34586;53.616;10.032;2022-09-20T15:42:40;16.80;49.80
10873;DHT22;34586;53.616;10.032;2022-09-20T15:45:10;16.70;1.00
10873;DHT22;34586;53.616;10.032;2022-09-20T15:47:37;16.50;99.90
10873;DHT22;34586;53.616;10.032;2022-09-20T15:50:07;16.40;99.90
10873;DHT22;34586;53.616;10.032;2022-09-20T15:52:37;16.40;99.90
10873;DHT22;34586;53.616;10.032;2022-09-20T15:55:07;16.40;99.90
10873;DHT22;34586;53.616;10.032;2022-09-20T15:57:33;16.30;99.90
10873;DHT22;34586;53.616;10.032;2022-09-20T15:59:59;16.30;99.90
10873;DHT22;34586;53.616;10.032;2022-09-20T16:02:26;16.20;1.00
10873;DHT22;34586;53.616;10.032;2022-09-20T16:04:52;16.10;1.00
10873;DHT22;34586;53.616;10.032;2022-09-20T16:07:23;16.10;1.00
10873;DHT22;34586;53.616;10.032;2022-09-20T16:09:51;16.00;99.90
10873;DHT22;34586;53.616;10.032;2022-09-20T16:12:17;15.90;1.00
10873;DHT22;34586;53.616;10.032;2022-09-20T16:14:42;15.70;21.80
10873;DHT22;34586;53.616;10.032;2022-09-20T16:17:08;15.60;64.70
10873;DHT22;34586;53.616;10.032;2022-09-20T16:19:33;15.50;1.00
10873;DHT22;34586;53.616;10.032;2022-09-20T16:21:59;15.40;99.90
10873;DHT22;34586;53.616;10.032;2022-09-20T16:24:27;15.30;1.00
10873;DHT22;34586;53.616;10.032;2022-09-20T16:26:53;15.20;81.40
10873;DHT22;34586;53.616;10.032;2022-09-20T16:29:18;15.20;99.90
10873;DHT22;34586;53.616;10.032;2022-09-20T16:31:49;15.10;1.00
10873;DHT22;34586;53.616;10.032;2022-09-20T16:34:24;15.10;1.00
10873;DHT22;34586;53.616;10.032;2022-09-20T16:36:56;15.00;99.90
10873;DHT22;34586;53.616;10.032;2022-09-20T16:39:23;14.90;99.90
10873;DHT22;34586;53.616;10.032;2022-09-20T16:42:03;14.90;99.90
10873;DHT22;34586;53.616;10.032;2022-09-20T16:44:33;14.80;1.00
10873;DHT22;34586;53.616;10.032;2022-09-20T16:46:59;14.70;99.90
10873;DHT22;34586;53.616;10.032;2022-09-20T16:49:25;14.60;99.90
10873;DHT22;34586;53.616;10.032;2022-09-20T16:51:52;14.50;1.00
10873;DHT22;34586;53.616;10.032;2022-09-20T16:54:18;14.40;1.00
10873;DHT22;34586;53.616;10.032;2022-09-20T16:56:49;14.40;99.90
10873;DHT22;34586;53.616;10.032;2022-09-20T16:59:16;14.30;1.00
10873;DHT22;34586;53.616;10.032;2022-09-20T17:01:43;14.30;1.00
10873;DHT22;34586;53.616;10.032;2022-09-20T17:04:10;14.20;99.90
10873;DHT22;34586;53.616;10.032;2022-09-20T17:06:37;14.10;99.90
10873;DHT22;34586;53.616;10.032;2022-09-20T17:09:04;14.10;99.90
10873;DHT22;34586;53.616;10.032;2022-09-20T17:11:36;14.00;1.00
10873;DHT22;34586;53.616;10.032;2022-09-20T17:14:03;13.90;1.00
10873;DHT22;34586;53.616;10.032;2022-09-20T17:16:34;13.80;1.00
10873;DHT22;34586;53.616;10.032;2022-09-20T17:19:05;13.70;99.90
10873;DHT22;34586;53.616;10.032;2022-09-20T17:21:32;13.60;1.00
10873;DHT22;34586;53.616;10.032;2022-09-20T17:24:00;13.50;1.00
10873;DHT22;34586;53.616;10.032;2022-09-20T17:26:32;13.40;1.00
10873;DHT22;34586;53.616;10.032;2022-09-20T17:29:00;13.30;99.90
10873;DHT22;34586;53.616;10.032;2022-09-20T17:31:28;13.20;1.00
10873;DHT22;34586;53.616;10.032;2022-09-20T17:33:56;13.10;99.90
10873;DHT22;34586;53.616;10.032;2022-09-20T17:36:28;13.00;1.00
10873;DHT22;34586;53.616;10.032;2022-09-20T17:38:56;12.90;99.90
10873;DHT22;34586;53.616;10.032;2022-09-20T17:41:23;12.80;1.00
10873;DHT22;34586;53.616;10.032;2022-09-20T17:43:53;12.70;99.90
10873;DHT22;34586;53.616;10.032;2022-09-20T17:46:24;12.60;1.00
10873;DHT22;34586;53.616;10.032;2022-09-20T17:48:55;12.60;99.90
10873;DHT22;34586;53.616;10.032;2022-09-20T17:51:24;12.50;1.00
10873;DHT22;34586;53.616;10.032;2022-09-20T17:53:51;12.40;50.20
10873;DHT22;34586;53.616;10.032;2022-09-20T17:56:17;12.40;99.90
10873;DHT22;34586;53.616;10.032;2022-09-20T17:58:43;12.30;1.00
10873;DHT22;34586;53.616;10.032;2022-09-20T18:01:16;12.30;1.00
10873;DHT22;34586;53.616;10.032;2022-09-20T18:03:44;12.20;99.90
10873;DHT22;34586;53.616;10.032;2022-09-20T18:06:18;12.20;99.90
10873;DHT22;34586;53.616;10.032;2022-09-20T18:08:48;12.10;99.90
10873;DHT22;34586;53.616;10.032;2022-09-20T18:11:15;12.00;99.90
10873;DHT22;34586;53.616;10.032;2022-09-20T18:13:41;12.00;1.00
10873;DHT22;34586;53.616;10.032;2022-09-20T18:16:11;11.90;1.00
10873;DHT22;34586;53.616;10.032;2022-09-20T18:18:38;11.80;1.00
10873;DHT22;34586;53.616;10.032;2022-09-20T18:21:15;11.80;1.00
10873;DHT22;34586;53.616;10.032;2022-09-20T18:23:41;11.70;1.00
10873;DHT22;34586;53.616;10.032;2022-09-20T18:26:12;11.60;1.00
10873;DHT22;34586;53.616;10.032;2022-09-20T18:29:03;11.50;1.00
10873;DHT22;34586;53.616;10.032;2022-09-20T18:33:58;11.40;1.00
10873;DHT22;34586;53.616;10.032;2022-09-20T18:36:26;11.40;1.00
10873;DHT22;34586;53.616;10.032;2022-09-20T18:38:53;11.30;1.00
10873;DHT22;34586;53.616;10.032;2022-09-20T18:41:25;11.30;1.00
10873;DHT22;34586;53.616;10.032;2022-09-20T18:43:52;11.20;1.00
10873;DHT22;34586;53.616;10.032;2022-09-20T18:46:18;11.10;1.00
10873;DHT22;34586;53.616;10.032;2022-09-20T18:48:48;12.00;1.00
10873;DHT22;34586;53.616;10.032;2022-09-20T18:51:14;11.10;1.00
10873;DHT22;34586;53.616;10.032;2022-09-20T18:53:40;11.00;1.00
10873;DHT22;34586;53.616;10.032;2022-09-20T18:58:42;11.00;1.00
10873;DHT22;34586;53.616;10.032;2022-09-20T19:06:28;10.90;42.80
10873;DHT22;34586;53.616;10.032;2022-09-20T19:09:18;10.80;41.60
10873;DHT22;34586;53.616;10.032;2022-09-20T19:11:50;10.80;39.90
10873;DHT22;34586;53.616;10.032;2022-09-20T19:14:29;10.80;36.50
10873;DHT22;34586;53.616;10.032;2022-09-20T19:17:01;10.70;56.30
10873;DHT22;34586;53.616;10.032;2022-09-20T19:19:50;10.70;77.10
10873;DHT22;34586;53.616;10.032;2022-09-20T19:27:31;10.50;88.30
10873;DHT22;34586;53.616;10.032;2022-09-20T19:29:57;10.50;95.70
10873;DHT22;34586;53.616;10.032;2022-09-20T19:32:22;10.50;99.90
10873;DHT22;34586;53.616;10.032;2022-09-20T19:34:52;10.40;99.90
10873;DHT22;34586;53.616;10.032;2022-09-20T19:37:28;10.40;95.20
10873;DHT22;34586;53.616;10.032;2022-09-20T19:43:09;10.30;99.90
10873;DHT22;34586;53.616;10.032;2022-09-20T19:50:54;10.20;99.90
10873;DHT22;34586;53.616;10.032;2022-09-20T19:53:22;10.20;99.90
10873;DHT22;34586;53.616;10.032;2022-09-20T19:58:38;10.10;99.90
10873;DHT22;34586;53.616;10.032;2022-09-20T20:01:09;10.10;99.90
10873;DHT22;34586;53.616;10.032;2022-09-20T20:03:35;10.10;99.90
10873;DHT22;34586;53.616;10.032;2022-09-20T20:06:01;10.10;99.90
10873;DHT22;34586;53.616;10.032;2022-09-20T20:08:41;10.10;99.90
10873;DHT22;34586;53.616;10.032;2022-09-20T20:19:42;10.00;99.90
10873;DHT22;34586;53.616;10.032;2022-09-20T20:22:50;9.90;99.90
10873;DHT22;34586;53.616;10.032;2022-09-20T20:27:50;9.90;99.90
10873;DHT22;34586;53.616;10.032;2022-09-20T20:30:16;9.80;99.90
10873;DHT22;34586;53.616;10.032;2022-09-20T20:32:41;9.80;99.90
10873;DHT22;34586;53.616;10.032;2022-09-20T20:35:07;9.80;99.90
10873;DHT22;34586;53.616;10.032;2022-09-20T20:37:36;9.80;99.90
10873;DHT22;34586;53.616;10.032;2022-09-20T20:40:02;9.70;99.90
10873;DHT22;34586;53.616;10.032;2022-09-20T20:42:28;9.70;99.90
10873;DHT22;34586;53.616;10.032;2022-09-20T20:44:53;9.70;99.90
10873;DHT22;34586;53.616;10.032;2022-09-20T20:47:19;9.70;99.90
10873;DHT22;34586;53.616;10.032;2022-09-20T20:49:44;9.70;99.90
10873;DHT22;34586;53.616;10.032;2022-09-20T20:52:10;9.70;99.90
10873;DHT22;34586;53.616;10.032;2022-09-20T20:54:36;9.70;99.90
10873;DHT22;34586;53.616;10.032;2022-09-20T20:57:01;9.70;99.90
10873;DHT22;34586;53.616;10.032;2022-09-20T20:59:27;9.60;99.90
10873;DHT22;34586;53.616;10.032;2022-09-20T21:01:54;9.60;99.90
10873;DHT22;34586;53.616;10.032;2022-09-20T21:04:20;9.60;99.90
10873;DHT22;34586;53.616;10.032;2022-09-20T21:06:46;9.50;99.90
10873;DHT22;34586;53.616;10.032;2022-09-20T21:09:11;9.50;99.90
10873;DHT22;34586;53.616;10.032;2022-09-20T21:11:39;9.50;99.90
10873;DHT22;34586;53.616;10.032;2022-09-20T21:14:09;9.40;99.90
10873;DHT22;34586;53.616;10.032;2022-09-20T21:16:37;9.40;99.90
10873;DHT22;34586;53.616;10.032;2022-09-20T21:19:04;9.40;99.90
10873;DHT22;34586;53.616;10.032;2022-09-20T21:21:35;9.40;99.90